METAR Data
IDs: Format: Raw Decoded Include TAF

Data at: 0240 UTC 29 Nov 2020

METAR for:KOXV (Knoxville Muni, IA, US)
Text:KOXV 290235Z AUTO 22009KT 10SM CLR 07/00 A3002 RMK AO2
Temperature: 7.0°C ( 45°F)
Dewpoint: 0.0°C ( 32°F) [RH = 61%]
Pressure (altimeter):30.02 inches Hg (1016.7 mb)
Winds:from the SW (220 degrees) at 10 MPH (9 knots; 4.6 m/s)
Visibility:10 or more sm (16+ km)
Ceiling:at least 12,000 feet AGL
Clouds:sky clear below 12,000 feet AGL
QC Flag:automated observation with no human augmentation